createdAt,value
2019-05-16T00:01:49.406Z,1.37
2019-05-16T00:07:50.742Z,1.77
2019-05-16T00:18:39.426Z,2.07
2019-05-16T00:25:11.066Z,1.40
2019-05-16T00:31:41.060Z,1.60
2019-05-16T00:34:42.899Z,1.83
2019-05-16T00:44:34.478Z,1.83
2019-05-16T00:47:28.375Z,1.63
2019-05-16T00:51:07.747Z,1.83
2019-05-16T00:54:44.912Z,1.80
2019-05-16T00:57:42.252Z,2.00
2019-05-16T01:00:50.285Z,1.50
2019-05-16T01:03:39.577Z,1.83
2019-05-16T01:06:58.578Z,2.00
2019-05-16T01:09:48.906Z,2.00
2019-05-16T01:12:39.093Z,1.97
2019-05-16T01:15:30.157Z,1.90
2019-05-16T01:18:19.877Z,1.80
2019-05-16T01:21:12.101Z,1.90
2019-05-16T01:24:02.383Z,2.03
2019-05-16T01:26:50.007Z,1.80
2019-05-16T01:29:38.515Z,1.97
2019-05-16T01:33:01.985Z,2.07
2019-05-16T01:42:38.306Z,2.00
2019-05-16T01:49:15.975Z,1.60
2019-05-16T02:12:28.553Z,1.70
2019-05-16T02:15:20.482Z,1.70
2019-05-16T02:18:08.308Z,1.70
2019-05-16T02:21:01.413Z,2.33
2019-05-16T02:24:02.023Z,1.80
2019-05-16T02:27:02.652Z,2.27
2019-05-16T02:30:06.307Z,2.00
2019-05-16T02:33:22.550Z,1.87
2019-05-16T02:36:16.108Z,2.10
2019-05-16T02:39:10.890Z,2.40
2019-05-16T02:42:12.945Z,1.90
2019-05-16T02:48:43.545Z,2.20
2019-05-16T02:54:47.344Z,2.10
2019-05-16T02:57:35.376Z,2.47
2019-05-16T03:00:42.382Z,2.10
2019-05-16T03:03:44.674Z,2.23
2019-05-16T03:13:15.615Z,2.63
2019-05-16T03:16:04.746Z,2.60
2019-05-16T03:18:56.588Z,2.90
2019-05-16T03:21:45.518Z,2.40
2019-05-16T03:24:34.093Z,2.87
2019-05-16T03:27:30.614Z,3.00
2019-05-16T03:30:23.297Z,2.77
2019-05-16T03:33:56.390Z,2.43
2019-05-16T03:40:21.420Z,2.67
2019-05-16T03:46:31.102Z,2.63
2019-05-16T03:49:21.119Z,2.77
2019-05-16T03:52:20.730Z,2.53
2019-05-16T03:55:10.782Z,2.70
2019-05-16T03:57:57.364Z,2.20
2019-05-16T04:00:54.022Z,3.37
2019-05-16T04:10:46.090Z,2.80
2019-05-16T04:13:41.022Z,2.83
2019-05-16T04:16:44.872Z,2.60
2019-05-16T04:20:14.249Z,2.50
2019-05-16T04:26:00.825Z,3.73
2019-05-16T04:32:23.786Z,2.67
2019-05-16T04:38:42.845Z,7.13
2019-05-16T04:42:06.569Z,3.27
2019-05-16T04:45:01.094Z,2.30
2019-05-16T04:47:51.469Z,2.50
2019-05-16T04:50:41.909Z,2.40
2019-05-16T04:53:31.312Z,1.63
2019-05-16T04:56:21.611Z,2.23
2019-05-16T04:59:16.632Z,1.33
2019-05-16T05:02:02.619Z,1.37
2019-05-16T05:04:51.053Z,1.47
2019-05-16T05:07:40.797Z,1.33
2019-05-16T05:10:31.224Z,1.40
2019-05-16T05:13:21.636Z,1.43
2019-05-16T05:16:10.446Z,1.33
2019-05-16T05:26:34.148Z,1.30
2019-05-16T05:29:16.774Z,1.80
2019-05-16T05:32:05.438Z,1.17
2019-05-16T05:34:54.093Z,1.10
2019-05-16T05:37:42.614Z,1.30
2019-05-16T05:40:30.287Z,1.40
2019-05-16T05:43:18.186Z,1.00
2019-05-16T05:46:05.970Z,1.10
2019-05-16T05:48:54.125Z,1.37
2019-05-16T05:51:54.752Z,0.90
2019-05-16T05:54:43.058Z,1.20
2019-05-16T05:57:32.061Z,1.13
2019-05-16T06:00:21.011Z,1.10
2019-05-16T06:03:10.675Z,1.50
2019-05-16T06:06:01.987Z,1.00
2019-05-16T06:09:06.292Z,0.90
2019-05-16T06:11:53.969Z,1.00
2019-05-16T06:14:42.037Z,0.87
2019-05-16T06:17:30.808Z,0.90
2019-05-16T06:20:20.300Z,0.90
2019-05-16T06:23:27.605Z,1.00
2019-05-16T06:26:15.611Z,0.80
2019-05-16T06:29:05.102Z,0.80
2019-05-16T06:31:52.933Z,0.63
2019-05-16T06:34:41.160Z,1.07
2019-05-16T06:37:30.941Z,0.70
2019-05-16T06:40:20.320Z,0.70
2019-05-16T06:43:11.023Z,0.77
2019-05-16T06:46:00.633Z,0.70
2019-05-16T06:48:50.402Z,0.63
2019-05-16T06:51:54.877Z,0.70
2019-05-16T06:54:42.325Z,1.03
2019-05-16T06:57:30.246Z,0.67
2019-05-16T07:00:20.742Z,0.70
2019-05-16T07:03:09.401Z,0.83
2019-05-16T07:05:56.411Z,0.70
2019-05-16T07:08:44.218Z,0.60
2019-05-16T07:11:32.196Z,0.70
2019-05-16T07:14:22.790Z,1.07
2019-05-16T07:17:09.699Z,0.60
2019-05-16T07:19:57.541Z,0.67
2019-05-16T07:22:44.833Z,0.73
2019-05-16T07:25:32.108Z,0.73
2019-05-16T07:28:20.941Z,0.70
2019-05-16T07:31:17.739Z,0.50
2019-05-16T07:33:57.465Z,0.77
2019-05-16T07:36:44.943Z,0.80
2019-05-16T07:39:32.925Z,0.50
2019-05-16T07:42:20.645Z,0.70
2019-05-16T07:45:10.815Z,0.63
2019-05-16T07:47:57.147Z,0.60
2019-05-16T07:50:44.563Z,0.70
2019-05-16T07:53:33.210Z,0.60
2019-05-16T07:56:20.680Z,0.50
2019-05-16T07:59:10.272Z,0.80
2019-05-16T08:01:57.242Z,0.80
2019-05-16T08:04:44.989Z,0.57
2019-05-16T08:07:33.554Z,0.70
2019-05-16T08:10:36.904Z,0.80
2019-05-16T08:13:12.367Z,0.70
2019-05-16T08:16:01.206Z,0.50
2019-05-16T08:18:50.347Z,0.57
2019-05-16T08:21:36.706Z,0.50
2019-05-16T08:24:24.504Z,0.50
2019-05-16T08:27:21.444Z,0.60
2019-05-16T08:30:10.935Z,0.70
2019-05-16T08:33:02.217Z,0.47
2019-05-16T08:35:55.366Z,1.40
2019-05-16T08:38:43.998Z,0.60
2019-05-16T08:41:33.568Z,0.70
2019-05-16T08:44:21.931Z,0.80
2019-05-16T08:47:11.925Z,0.70
2019-05-16T08:50:00.820Z,0.60
2019-05-16T08:55:42.935Z,0.70
2019-05-16T08:59:05.485Z,0.40
2019-05-16T09:01:58.117Z,0.50
2019-05-16T09:10:21.439Z,0.77
2019-05-16T09:11:50.499Z,0.60
2019-05-16T09:14:40.781Z,0.93
2019-05-16T09:21:07.723Z,0.70
2019-05-16T09:23:58.594Z,1.03
2019-05-16T09:26:47.371Z,0.90
2019-05-16T09:29:36.643Z,1.07
2019-05-16T09:36:00.435Z,0.70
2019-05-16T09:38:52.281Z,1.00
2019-05-16T09:41:53.946Z,0.60
2019-05-16T09:44:32.130Z,0.70
2019-05-16T09:50:53.812Z,0.80
2019-05-16T09:57:23.998Z,0.67
2019-05-16T10:00:14.515Z,0.77
2019-05-16T10:06:20.052Z,0.87
2019-05-16T10:09:13.804Z,0.90
2019-05-16T10:18:20.887Z,1.00
2019-05-16T10:21:17.910Z,0.60
2019-05-16T10:30:42.885Z,0.57
2019-05-16T10:33:59.931Z,0.80
2019-05-16T10:36:47.623Z,1.00
2019-05-16T10:42:50.394Z,1.10
2019-05-16T10:49:07.290Z,0.90
2019-05-16T10:52:00.948Z,0.80
2019-05-16T10:54:57.416Z,1.17
2019-05-16T10:57:51.417Z,0.87
2019-05-16T11:04:08.232Z,0.80
2019-05-16T11:06:59.232Z,0.90
2019-05-16T11:09:58.278Z,1.23
2019-05-16T11:16:21.012Z,0.93
2019-05-16T11:22:56.948Z,0.77
2019-05-16T11:25:43.261Z,0.90
2019-05-16T11:28:50.349Z,1.00
2019-05-16T11:38:52.047Z,0.80
2019-05-16T11:41:58.505Z,1.00
2019-05-16T11:47:59.524Z,0.90
2019-05-16T11:50:47.924Z,0.90
2019-05-16T11:53:39.675Z,0.60
2019-05-16T11:56:37.062Z,1.00
2019-05-16T11:59:46.962Z,0.90
2019-05-16T12:02:57.249Z,0.90
2019-05-16T12:06:03.736Z,0.80
2019-05-16T12:08:50.897Z,0.70
2019-05-16T12:11:38.506Z,0.67
2019-05-16T12:24:47.747Z,0.70
2019-05-16T12:27:41.700Z,0.87
2019-05-16T12:30:23.842Z,0.80
2019-05-16T12:33:18.753Z,0.83
2019-05-16T12:36:14.539Z,0.70
2019-05-16T12:39:08.824Z,0.60
2019-05-16T12:41:59.672Z,0.70
2019-05-16T12:44:51.122Z,0.80
2019-05-16T12:51:33.397Z,0.80
2019-05-16T12:54:43.581Z,0.83
2019-05-16T13:01:08.408Z,0.57
2019-05-16T13:04:28.012Z,0.73
2019-05-16T13:11:20.818Z,0.70
2019-05-16T13:14:12.280Z,0.87
2019-05-16T13:17:09.516Z,0.80
2019-05-16T13:44:18.494Z,0.80
2019-05-16T13:47:03.942Z,0.80
2019-05-16T13:50:28.955Z,0.70
2019-05-16T13:56:12.692Z,0.80
2019-05-16T14:06:07.431Z,0.90
2019-05-16T14:19:20.052Z,0.90
2019-05-16T14:25:54.480Z,0.90
2019-05-16T14:40:32.301Z,0.90
2019-05-16T14:43:22.892Z,1.07
2019-05-16T14:46:27.442Z,0.90
2019-05-16T14:49:20.548Z,0.70
2019-05-16T14:52:11.551Z,0.90
2019-05-16T14:55:38.873Z,1.13
2019-05-16T14:58:39.952Z,0.90
2019-05-16T15:01:29.355Z,0.90
2019-05-16T15:04:20.636Z,1.20
2019-05-16T15:07:58.418Z,0.87
2019-05-16T15:11:01.720Z,0.90
2019-05-16T15:13:52.191Z,0.70
2019-05-16T15:16:40.235Z,1.07
2019-05-16T15:26:30.623Z,0.63
2019-05-16T15:29:21.901Z,0.60
2019-05-16T15:32:17.687Z,0.80
2019-05-16T15:35:57.725Z,0.70
2019-05-16T15:38:01.039Z,0.50
2019-05-16T15:40:50.915Z,0.90
2019-05-16T15:43:41.911Z,0.50
2019-05-16T15:46:39.352Z,0.60
2019-05-16T15:49:27.594Z,0.90
2019-05-16T15:52:16.768Z,1.00
2019-05-16T15:55:14.427Z,0.60
2019-05-16T15:58:07.317Z,0.80
2019-05-16T16:01:10.416Z,0.70
2019-05-16T16:04:07.030Z,0.83
2019-05-16T16:07:09.091Z,0.80
2019-05-16T16:10:01.526Z,0.93
2019-05-16T16:19:47.384Z,0.90
2019-05-16T16:22:47.103Z,0.63
2019-05-16T16:25:53.200Z,0.63
2019-05-16T16:28:49.855Z,1.00
2019-05-16T16:31:57.635Z,0.60
2019-05-16T16:35:37.845Z,0.80
2019-05-16T16:57:59.639Z,0.60
2019-05-16T17:04:17.248Z,0.83
2019-05-16T17:07:07.240Z,1.00
2019-05-16T17:10:16.022Z,0.77
2019-05-16T17:13:10.727Z,0.80
2019-05-16T17:16:33.047Z,0.60
2019-05-16T17:19:47.355Z,0.70
2019-05-16T17:26:17.880Z,0.83
2019-05-16T17:29:42.612Z,1.00
2019-05-16T17:36:17.141Z,0.87
2019-05-16T17:39:13.462Z,0.80
2019-05-16T17:42:01.799Z,0.60
2019-05-16T17:49:01.947Z,0.60
2019-05-16T17:51:11.186Z,0.60
2019-05-16T17:54:23.717Z,0.50
2019-05-16T17:57:11.614Z,0.70
2019-05-16T18:00:12.261Z,0.47
2019-05-16T18:06:38.061Z,0.67
2019-05-16T18:09:32.848Z,0.70
2019-05-16T18:12:27.566Z,0.53
2019-05-16T18:18:29.024Z,0.67
2019-05-16T18:21:17.076Z,0.90
2019-05-16T18:24:05.166Z,0.67
2019-05-16T18:26:53.015Z,0.70
2019-05-16T18:29:40.754Z,0.70
2019-05-16T18:32:28.084Z,0.80
2019-05-16T18:35:16.786Z,0.60
2019-05-16T18:38:06.967Z,0.60
2019-05-16T18:40:56.434Z,0.80
2019-05-16T18:43:43.232Z,0.90
2019-05-16T18:49:47.295Z,0.70
2019-05-16T18:52:37.594Z,0.80
2019-05-16T19:06:02.274Z,0.90
2019-05-16T19:12:33.964Z,1.03
2019-05-16T19:15:42.150Z,1.10
2019-05-16T19:18:33.565Z,1.20
2019-05-16T19:25:38.165Z,1.27
2019-05-16T19:29:19.187Z,1.00
2019-05-16T19:33:11.363Z,1.10
2019-05-16T19:34:58.713Z,1.20
2019-05-16T19:38:18.337Z,1.13
2019-05-16T19:41:07.974Z,1.03
2019-05-16T19:47:13.588Z,1.20
2019-05-16T19:50:01.815Z,1.00
2019-05-16T19:52:56.722Z,1.90
2019-05-16T19:56:22.297Z,1.07
2019-05-16T19:59:19.751Z,1.27
2019-05-16T20:02:28.031Z,1.10
2019-05-16T20:05:19.629Z,1.33
2019-05-16T20:11:24.159Z,1.00
2019-05-16T20:14:19.301Z,1.00
2019-05-16T20:17:50.823Z,1.30
2019-05-16T20:20:56.775Z,1.20
2019-05-16T20:24:17.371Z,1.27
2019-05-16T20:27:17.041Z,1.33
2019-05-16T20:37:36.672Z,1.10
2019-05-16T20:40:27.691Z,1.00
2019-05-16T20:43:16.827Z,1.27
2019-05-16T20:46:07.288Z,1.33
2019-05-16T20:48:58.961Z,1.03
2019-05-16T20:51:50.088Z,1.10
2019-05-16T20:55:02.056Z,1.30
2019-05-16T20:57:51.471Z,1.40
2019-05-16T21:03:52.829Z,1.30
2019-05-16T21:10:17.616Z,1.37
2019-05-16T21:13:06.780Z,1.50
2019-05-16T21:15:57.896Z,1.30
2019-05-16T21:19:03.910Z,1.50
2019-05-16T21:21:51.764Z,1.70
2019-05-16T21:24:40.683Z,1.40
2019-05-16T21:27:32.836Z,1.60
2019-05-16T21:30:21.533Z,1.60
2019-05-16T21:33:09.614Z,1.30
2019-05-16T21:36:03.887Z,1.50
2019-05-16T21:38:52.331Z,2.03
2019-05-16T21:41:41.185Z,1.67
2019-05-16T21:44:30.028Z,1.73
2019-05-16T21:47:19.622Z,1.50
2019-05-16T21:50:08.443Z,1.70
2019-05-16T21:53:07.316Z,1.73
2019-05-16T21:55:56.491Z,1.77
2019-05-16T21:58:44.278Z,1.60
2019-05-16T22:01:40.938Z,1.60
2019-05-16T22:05:02.486Z,1.70
2019-05-16T22:08:11.692Z,1.47
2019-05-16T22:11:00.601Z,1.60
2019-05-16T22:13:48.318Z,1.70
2019-05-16T22:16:37.183Z,1.87
2019-05-16T22:19:27.019Z,1.70
2019-05-16T22:22:18.420Z,1.60
2019-05-16T22:25:07.805Z,1.90
2019-05-16T22:28:00.657Z,1.83
2019-05-16T22:31:03.405Z,1.90
2019-05-16T22:33:53.403Z,2.03
2019-05-16T22:36:41.123Z,2.00
2019-05-16T22:39:29.669Z,2.40
2019-05-16T22:42:21.465Z,1.90
2019-05-16T22:45:12.074Z,2.17
2019-05-16T22:48:00.927Z,2.00
2019-05-16T22:50:56.732Z,1.93
2019-05-16T22:53:49.962Z,1.90
2019-05-16T22:56:40.325Z,2.13
2019-05-16T22:59:41.921Z,1.93
2019-05-16T23:02:40.506Z,2.13
2019-05-16T23:05:28.206Z,1.80
2019-05-16T23:08:19.691Z,2.33
2019-05-16T23:11:11.019Z,2.00
2019-05-16T23:14:02.127Z,2.30
2019-05-16T23:17:09.905Z,2.10
2019-05-16T23:20:17.227Z,1.93
2019-05-16T23:27:01.293Z,2.60
2019-05-16T23:30:22.152Z,1.93
2019-05-16T23:37:11.500Z,1.90
2019-05-16T23:40:06.597Z,1.93
2019-05-16T23:43:00.596Z,1.87
2019-05-16T23:52:42.739Z,1.90
